createdAt,value
2022-08-31T00:02:43.109Z,29.90
2022-08-31T00:05:11.319Z,29.80
2022-08-31T00:07:40.212Z,29.90
2022-08-31T00:10:15.259Z,29.90
2022-08-31T00:12:44.366Z,29.80
2022-08-31T00:15:18.088Z,29.80
2022-08-31T00:17:45.244Z,29.80
2022-08-31T00:20:32.611Z,29.80
2022-08-31T00:22:59.952Z,29.80
2022-08-31T00:25:27.054Z,29.80
2022-08-31T00:27:55.648Z,29.80
2022-08-31T00:30:23.588Z,29.80
2022-08-31T00:32:50.586Z,29.80
2022-08-31T00:35:17.653Z,29.70
2022-08-31T00:37:44.536Z,29.80
2022-08-31T00:40:12.392Z,29.80
2022-08-31T00:45:09.729Z,29.80
2022-08-31T00:47:37.270Z,29.80
2022-08-31T00:50:10.999Z,29.70
2022-08-31T00:52:45.627Z,29.70
2022-08-31T00:55:41.151Z,29.80
2022-08-31T00:58:12.936Z,29.80
2022-08-31T01:00:43.108Z,29.70
2022-08-31T01:03:10.873Z,29.80
2022-08-31T01:05:39.855Z,29.70
2022-08-31T01:08:08.055Z,29.80
2022-08-31T01:10:40.488Z,29.80
2022-08-31T01:13:09.173Z,29.70
2022-08-31T01:15:39.754Z,29.70
2022-08-31T01:18:07.688Z,29.70
2022-08-31T01:21:07.776Z,29.70
2022-08-31T01:23:40.344Z,29.70
2022-08-31T01:26:09.126Z,29.70
2022-08-31T01:28:36.946Z,29.60
2022-08-31T01:31:20.970Z,29.60
2022-08-31T01:33:48.372Z,29.70
2022-08-31T01:36:16.500Z,29.70
2022-08-31T01:38:45.091Z,29.60
2022-08-31T01:41:13.069Z,29.60
2022-08-31T01:43:41.749Z,29.70
2022-08-31T01:46:13.264Z,29.60
2022-08-31T01:48:45.480Z,29.60
2022-08-31T01:51:16.479Z,29.60
2022-08-31T01:53:48.655Z,29.60
2022-08-31T01:56:27.149Z,29.60
2022-08-31T01:58:54.399Z,29.60
2022-08-31T02:01:33.527Z,29.60
2022-08-31T02:04:05.466Z,29.60
2022-08-31T02:06:33.315Z,29.60
2022-08-31T02:09:02.335Z,29.60
2022-08-31T02:11:29.337Z,29.50
2022-08-31T02:14:01.865Z,29.50
2022-08-31T02:16:28.927Z,29.60
2022-08-31T02:18:56.209Z,29.50
2022-08-31T02:21:23.292Z,29.50
2022-08-31T02:23:50.335Z,29.50
2022-08-31T02:26:17.978Z,29.50
2022-08-31T02:28:45.326Z,29.50
2022-08-31T02:31:12.228Z,29.60
2022-08-31T02:33:39.402Z,29.40
2022-08-31T02:36:07.401Z,29.50
2022-08-31T02:38:37.117Z,29.50
2022-08-31T02:41:05.902Z,29.40
2022-08-31T02:43:33.368Z,29.40
2022-08-31T02:46:00.448Z,29.40
2022-08-31T02:48:27.482Z,29.40
2022-08-31T02:50:54.761Z,29.40
2022-08-31T02:53:23.470Z,29.50
2022-08-31T02:55:53.221Z,29.40
2022-08-31T03:00:52.331Z,29.40
2022-08-31T03:03:20.415Z,29.40
2022-08-31T03:05:48.964Z,29.40
2022-08-31T03:08:15.880Z,29.40
2022-08-31T03:10:42.973Z,29.40
2022-08-31T03:13:13.378Z,29.40
2022-08-31T03:15:42.572Z,29.30
2022-08-31T03:18:10.253Z,29.30
2022-08-31T03:20:37.436Z,29.30
2022-08-31T03:23:05.598Z,29.30
2022-08-31T03:25:32.559Z,29.20
2022-08-31T03:27:59.730Z,29.30
2022-08-31T03:30:29.875Z,29.30
2022-08-31T03:33:00.999Z,29.30
2022-08-31T03:35:30.219Z,29.30
2022-08-31T03:37:57.497Z,29.30
2022-08-31T03:40:24.586Z,29.20
2022-08-31T03:42:51.719Z,29.20
2022-08-31T03:45:18.821Z,29.20
2022-08-31T03:47:46.084Z,29.20
2022-08-31T03:50:13.321Z,29.20
2022-08-31T03:52:40.224Z,29.20
2022-08-31T03:55:10.761Z,29.20
2022-08-31T03:57:38.006Z,29.10
2022-08-31T04:00:07.451Z,29.20
2022-08-31T04:02:38.866Z,29.20
2022-08-31T04:05:08.065Z,29.10
2022-08-31T04:07:42.323Z,29.10
2022-08-31T04:10:12.465Z,29.10
2022-08-31T04:12:39.783Z,29.10
2022-08-31T04:15:08.610Z,29.10
2022-08-31T04:17:35.562Z,29.10
2022-08-31T04:20:04.027Z,29.10
2022-08-31T04:22:31.021Z,29.00
2022-08-31T04:24:57.882Z,29.00
2022-08-31T04:27:24.901Z,29.00
2022-08-31T04:29:51.779Z,29.00
2022-08-31T04:32:19.827Z,29.00
2022-08-31T04:34:46.833Z,29.00
2022-08-31T04:37:14.670Z,29.00
2022-08-31T04:39:50.761Z,29.00
2022-08-31T04:42:18.214Z,29.00
2022-08-31T04:44:45.133Z,29.00
2022-08-31T04:47:12.089Z,29.00
2022-08-31T04:49:39.570Z,29.00
2022-08-31T04:52:08.272Z,29.00
2022-08-31T04:54:35.372Z,29.00
2022-08-31T04:57:02.313Z,29.00
2022-08-31T04:59:29.377Z,29.00
2022-08-31T05:01:56.526Z,29.00
2022-08-31T05:04:29.016Z,29.00
2022-08-31T05:06:59.156Z,29.00
2022-08-31T05:09:27.142Z,29.00
2022-08-31T05:11:56.261Z,29.00
2022-08-31T05:14:24.831Z,29.00
2022-08-31T05:16:52.699Z,29.00
2022-08-31T05:19:20.550Z,28.90
2022-08-31T05:21:47.823Z,28.90
2022-08-31T05:24:19.001Z,28.90
2022-08-31T05:26:50.848Z,28.90
2022-08-31T05:29:24.751Z,29.00
2022-08-31T05:31:52.894Z,29.00
2022-08-31T05:34:22.007Z,28.90
2022-08-31T05:36:57.126Z,28.90
2022-08-31T05:39:26.151Z,28.90
2022-08-31T05:41:54.120Z,28.90
2022-08-31T05:44:21.280Z,28.90
2022-08-31T05:46:54.706Z,28.90
2022-08-31T05:49:28.133Z,28.90
2022-08-31T05:51:56.444Z,28.80
2022-08-31T05:54:23.406Z,28.90
2022-08-31T05:56:50.346Z,28.80
2022-08-31T05:59:17.408Z,28.80
2022-08-31T06:01:44.481Z,28.80
2022-08-31T06:04:12.576Z,28.80
2022-08-31T06:06:39.894Z,28.80
2022-08-31T06:09:08.554Z,28.80
2022-08-31T06:11:38.258Z,28.80
2022-08-31T06:14:06.354Z,28.80
2022-08-31T06:16:33.964Z,28.80
2022-08-31T06:19:03.513Z,28.80
2022-08-31T06:21:34.544Z,28.80
2022-08-31T06:24:04.014Z,28.80
2022-08-31T06:26:35.868Z,28.80
2022-08-31T06:29:08.793Z,28.80
2022-08-31T06:32:26.227Z,28.80
2022-08-31T06:34:53.214Z,28.80
2022-08-31T06:37:20.180Z,28.80
2022-08-31T06:39:47.818Z,28.80
2022-08-31T06:42:15.070Z,28.90
2022-08-31T06:44:42.034Z,28.80
2022-08-31T06:48:40.017Z,28.90
2022-08-31T06:51:08.627Z,28.90
2022-08-31T06:53:37.681Z,28.90
2022-08-31T06:56:21.042Z,29.00
2022-08-31T06:58:53.888Z,28.90
2022-08-31T07:01:35.211Z,28.90
2022-08-31T07:04:07.206Z,29.00
2022-08-31T07:06:44.407Z,29.00
2022-08-31T07:09:17.556Z,29.00
2022-08-31T07:11:52.202Z,29.00
2022-08-31T07:14:23.431Z,29.00
2022-08-31T07:16:54.454Z,29.00
2022-08-31T07:19:22.646Z,29.00
2022-08-31T07:21:59.896Z,29.00
2022-08-31T07:24:30.827Z,29.00
2022-08-31T07:27:04.405Z,29.00
2022-08-31T07:29:37.614Z,29.00
2022-08-31T07:32:04.742Z,29.00
2022-08-31T07:34:33.824Z,28.90
2022-08-31T07:37:21.060Z,28.90
2022-08-31T07:40:08.458Z,28.90
2022-08-31T07:42:46.754Z,28.80
2022-08-31T07:45:23.044Z,28.80
2022-08-31T07:47:53.954Z,28.40
2022-08-31T07:50:23.287Z,28.70
2022-08-31T07:52:54.783Z,28.60
2022-08-31T07:55:24.940Z,28.60
2022-08-31T07:57:55.069Z,28.50
2022-08-31T08:00:31.301Z,28.40
2022-08-31T08:03:07.926Z,28.40
2022-08-31T08:05:38.678Z,28.30
2022-08-31T08:08:12.256Z,28.30
2022-08-31T08:10:52.300Z,28.20
2022-08-31T08:13:20.835Z,28.20
2022-08-31T08:15:50.761Z,28.20
2022-08-31T08:18:19.716Z,28.10
2022-08-31T08:20:46.677Z,28.10
2022-08-31T08:23:17.923Z,28.10
2022-08-31T08:25:48.649Z,28.00
2022-08-31T08:28:40.149Z,28.00
2022-08-31T08:31:15.393Z,28.00
2022-08-31T08:33:43.432Z,28.00
2022-08-31T08:36:11.545Z,28.00
2022-08-31T08:38:43.963Z,27.90
2022-08-31T08:41:33.600Z,27.90
2022-08-31T08:44:07.284Z,27.90
2022-08-31T08:46:48.098Z,27.80
2022-08-31T08:49:49.694Z,27.90
2022-08-31T08:52:42.641Z,27.80
2022-08-31T08:55:22.351Z,27.80
2022-08-31T08:57:51.962Z,27.70
2022-08-31T09:00:33.364Z,27.60
2022-08-31T09:03:07.196Z,27.70
2022-08-31T09:05:50.999Z,27.60
2022-08-31T09:08:48.676Z,27.70
2022-08-31T09:12:05.111Z,27.50
2022-08-31T09:15:11.431Z,27.40
2022-08-31T09:18:22.846Z,27.40
2022-08-31T09:21:04.988Z,27.50
2022-08-31T09:23:41.149Z,27.40
2022-08-31T09:26:10.225Z,27.50
2022-08-31T09:28:48.419Z,27.50
2022-08-31T09:31:41.335Z,27.50
2022-08-31T09:34:29.553Z,27.50
2022-08-31T09:37:16.121Z,27.50
2022-08-31T09:39:48.178Z,27.60
2022-08-31T09:42:33.759Z,27.50
2022-08-31T09:45:14.155Z,27.50
2022-08-31T09:47:52.070Z,27.60
2022-08-31T09:50:36.553Z,27.70
2022-08-31T09:53:45.570Z,27.70
2022-08-31T09:56:25.150Z,27.80
2022-08-31T09:58:53.514Z,27.90
2022-08-31T10:01:38.716Z,27.90
2022-08-31T10:04:26.293Z,28.00
2022-08-31T10:07:24.951Z,28.10
2022-08-31T10:09:58.734Z,28.20
2022-08-31T10:12:55.378Z,28.20
2022-08-31T10:15:32.136Z,28.30
2022-08-31T10:18:39.641Z,28.40
2022-08-31T10:21:21.347Z,28.50
2022-08-31T10:24:34.582Z,28.40
2022-08-31T10:27:38.752Z,28.60
2022-08-31T10:30:52.627Z,28.60
2022-08-31T10:33:55.148Z,28.70
2022-08-31T10:36:25.305Z,28.70
2022-08-31T10:38:55.162Z,28.80
2022-08-31T10:41:38.753Z,28.90
2022-08-31T10:44:26.325Z,28.90
2022-08-31T10:47:02.832Z,29.00
2022-08-31T10:49:30.540Z,29.00
2022-08-31T10:52:35.047Z,29.00
2022-08-31T10:55:29.037Z,29.20
2022-08-31T10:58:24.208Z,29.20
2022-08-31T11:01:39.408Z,29.30
2022-08-31T11:05:03.550Z,29.30
2022-08-31T11:08:02.613Z,29.40
2022-08-31T11:10:44.718Z,29.50
2022-08-31T11:13:51.261Z,29.60
2022-08-31T11:16:36.424Z,29.80
2022-08-31T11:19:19.146Z,30.00
2022-08-31T11:22:11.056Z,30.10
2022-08-31T11:25:28.787Z,30.20
2022-08-31T11:28:09.054Z,30.40
2022-08-31T11:30:50.824Z,30.50
2022-08-31T11:33:28.362Z,30.60
2022-08-31T11:36:07.652Z,30.80
2022-08-31T11:39:03.572Z,30.90
2022-08-31T11:41:49.348Z,31.00
2022-08-31T11:44:39.415Z,31.00
2022-08-31T11:47:09.426Z,31.20
2022-08-31T11:49:50.563Z,31.10
2022-08-31T11:52:48.676Z,31.30
2022-08-31T11:55:29.648Z,31.30
2022-08-31T11:58:11.185Z,31.40
2022-08-31T12:01:04.445Z,31.50
2022-08-31T12:03:43.226Z,31.50
2022-08-31T12:06:28.250Z,31.40
2022-08-31T12:09:23.250Z,31.40
2022-08-31T12:12:19.629Z,31.50
2022-08-31T12:14:56.601Z,31.50
2022-08-31T12:18:10.763Z,31.60
2022-08-31T12:21:27.013Z,31.60
2022-08-31T12:24:20.900Z,31.60
2022-08-31T12:26:50.841Z,31.50
2022-08-31T12:29:35.655Z,31.40
2022-08-31T12:32:43.509Z,31.30
2022-08-31T12:35:30.128Z,31.20
2022-08-31T12:38:10.552Z,31.10
2022-08-31T12:40:57.444Z,31.00
2022-08-31T12:43:46.009Z,30.90
2022-08-31T12:46:43.080Z,30.90
2022-08-31T12:49:37.181Z,30.80
2022-08-31T12:52:06.928Z,30.60
2022-08-31T12:54:58.690Z,30.60
2022-08-31T12:58:12.460Z,30.70
2022-08-31T13:00:43.423Z,30.60
2022-08-31T13:03:26.797Z,30.60
2022-08-31T13:06:08.435Z,30.70
2022-08-31T13:08:43.643Z,30.70
2022-08-31T13:11:35.306Z,30.80
2022-08-31T13:14:24.500Z,30.80
2022-08-31T13:17:15.087Z,30.90
2022-08-31T13:20:03.667Z,30.90
2022-08-31T13:22:41.497Z,31.00
2022-08-31T13:25:38.221Z,30.90
2022-08-31T13:28:30.543Z,30.90
2022-08-31T13:31:11.659Z,30.90
2022-08-31T13:33:40.671Z,30.90
2022-08-31T13:36:16.936Z,30.90
2022-08-31T13:38:52.123Z,30.90
2022-08-31T13:41:42.613Z,30.90
2022-08-31T13:44:13.898Z,30.90
2022-08-31T13:47:00.134Z,30.50
2022-08-31T13:49:35.816Z,30.90
2022-08-31T13:52:20.610Z,30.90
2022-08-31T13:55:12.175Z,30.90
2022-08-31T13:57:40.438Z,30.90
2022-08-31T14:00:32.405Z,30.90
2022-08-31T14:03:49.930Z,30.90
2022-08-31T14:06:25.604Z,30.90
2022-08-31T14:09:17.936Z,30.80
2022-08-31T14:11:55.928Z,30.90
2022-08-31T14:14:29.783Z,30.90
2022-08-31T14:17:03.716Z,30.80
2022-08-31T14:19:35.438Z,30.80
2022-08-31T14:22:42.525Z,30.80
2022-08-31T14:25:12.433Z,30.90
2022-08-31T14:27:41.576Z,30.90
2022-08-31T14:30:09.331Z,30.90
2022-08-31T14:32:36.512Z,30.80
2022-08-31T14:35:11.587Z,30.80
2022-08-31T14:37:44.144Z,30.80
2022-08-31T14:40:13.762Z,30.80
2022-08-31T14:42:41.329Z,30.80
2022-08-31T14:45:18.927Z,30.70
2022-08-31T14:47:51.971Z,30.70
2022-08-31T14:50:25.449Z,30.70
2022-08-31T14:52:55.238Z,30.70
2022-08-31T14:55:28.185Z,30.70
2022-08-31T14:58:05.196Z,30.70
2022-08-31T15:00:35.545Z,30.60
2022-08-31T15:03:02.969Z,30.60
2022-08-31T15:05:30.042Z,30.70
2022-08-31T15:07:57.272Z,30.60
2022-08-31T15:10:27.080Z,30.60
2022-08-31T15:12:55.286Z,30.60
2022-08-31T15:15:22.669Z,30.60
2022-08-31T15:17:51.936Z,30.50
2022-08-31T15:20:20.953Z,30.70
2022-08-31T15:22:49.294Z,30.60
2022-08-31T15:25:19.846Z,30.60
2022-08-31T15:27:47.254Z,30.60
2022-08-31T15:30:19.939Z,30.50
2022-08-31T15:32:48.088Z,30.60
2022-08-31T15:35:23.523Z,30.70
2022-08-31T15:37:58.646Z,30.60
2022-08-31T15:40:29.518Z,30.70
2022-08-31T15:42:57.219Z,30.60
2022-08-31T15:45:28.197Z,30.70
2022-08-31T15:48:14.178Z,30.70
2022-08-31T15:50:52.486Z,30.90
2022-08-31T15:53:23.748Z,30.80
2022-08-31T15:55:51.956Z,30.90
2022-08-31T15:58:24.451Z,30.90
2022-08-31T16:00:52.126Z,30.90
2022-08-31T16:03:19.105Z,31.00
2022-08-31T16:05:49.221Z,31.00
2022-08-31T16:08:16.701Z,31.00
2022-08-31T16:10:47.190Z,31.10
2022-08-31T16:13:16.218Z,31.00
2022-08-31T16:15:53.604Z,31.10
2022-08-31T16:18:22.368Z,31.00
2022-08-31T16:20:50.523Z,31.00
2022-08-31T16:23:19.519Z,31.00
2022-08-31T16:25:48.903Z,31.00
2022-08-31T16:28:20.853Z,30.90
2022-08-31T16:30:51.040Z,30.90
2022-08-31T16:33:19.215Z,30.90
2022-08-31T16:35:47.261Z,30.80
2022-08-31T16:38:15.055Z,30.80
2022-08-31T16:40:42.951Z,30.70
2022-08-31T16:43:11.456Z,30.70
2022-08-31T16:45:41.010Z,30.70
2022-08-31T16:48:29.655Z,30.70
2022-08-31T16:50:59.703Z,30.60
2022-08-31T16:53:26.672Z,30.60
2022-08-31T16:55:59.762Z,30.60
2022-08-31T16:58:50.023Z,30.50
2022-08-31T17:01:19.002Z,30.50
2022-08-31T17:03:51.709Z,30.50
2022-08-31T17:06:19.279Z,30.50
2022-08-31T17:08:47.033Z,30.50
2022-08-31T17:11:17.690Z,30.50
2022-08-31T17:13:47.474Z,30.40
2022-08-31T17:16:21.341Z,30.40
2022-08-31T17:18:52.556Z,30.40
2022-08-31T17:21:26.989Z,30.40
2022-08-31T17:24:05.480Z,30.40
2022-08-31T17:26:38.768Z,30.40
2022-08-31T17:29:07.313Z,30.40
2022-08-31T17:31:42.340Z,30.30
2022-08-31T17:34:14.625Z,30.40
2022-08-31T17:36:49.932Z,30.30
2022-08-31T17:39:20.000Z,30.30
2022-08-31T17:41:48.769Z,31.30
2022-08-31T17:44:18.661Z,30.30
2022-08-31T17:46:49.595Z,33.00
2022-08-31T17:49:21.992Z,30.30
2022-08-31T17:51:51.713Z,30.20
2022-08-31T17:54:30.074Z,30.30
2022-08-31T17:57:00.629Z,30.30
2022-08-31T17:59:34.721Z,30.20
2022-08-31T18:02:10.973Z,30.20
2022-08-31T18:04:39.826Z,30.20
2022-08-31T18:07:09.122Z,30.20
2022-08-31T18:09:41.375Z,30.20
2022-08-31T18:12:09.576Z,30.00
2022-08-31T18:14:38.893Z,30.10
2022-08-31T18:17:10.280Z,30.10
2022-08-31T18:19:39.075Z,30.20
2022-08-31T18:22:07.015Z,30.10
2022-08-31T18:24:37.438Z,30.20
2022-08-31T18:27:09.435Z,30.10
2022-08-31T18:29:38.788Z,30.10
2022-08-31T18:32:08.172Z,30.10
2022-08-31T18:34:43.686Z,30.10
2022-08-31T18:37:12.937Z,30.10
2022-08-31T18:40:00.459Z,30.10
2022-08-31T18:42:46.551Z,30.10
2022-08-31T18:45:16.724Z,30.10
2022-08-31T18:48:01.517Z,30.10
2022-08-31T18:50:36.460Z,30.00
2022-08-31T18:53:08.172Z,30.10
2022-08-31T18:55:39.330Z,30.00
2022-08-31T18:58:06.977Z,30.00
2022-08-31T19:00:34.067Z,30.10
2022-08-31T19:03:02.484Z,30.00
2022-08-31T19:05:31.420Z,30.10
2022-08-31T19:08:01.460Z,30.10
2022-08-31T19:10:28.635Z,30.10
2022-08-31T19:12:55.864Z,30.10
2022-08-31T19:15:31.814Z,30.10
2022-08-31T19:18:05.287Z,30.10
2022-08-31T19:20:35.457Z,30.00
2022-08-31T19:23:02.988Z,30.00
2022-08-31T19:25:31.854Z,29.90
2022-08-31T19:28:01.546Z,30.00
2022-08-31T19:30:29.003Z,29.70
2022-08-31T19:32:56.890Z,30.10
2022-08-31T19:35:26.740Z,30.00
2022-08-31T19:37:56.343Z,30.00
2022-08-31T19:40:35.653Z,30.00
2022-08-31T19:45:50.910Z,30.00
2022-08-31T19:48:23.018Z,30.00
2022-08-31T19:50:50.327Z,30.00
2022-08-31T19:53:20.784Z,30.00
2022-08-31T19:55:51.424Z,30.00
2022-08-31T19:58:26.199Z,30.00
2022-08-31T20:01:00.593Z,30.00
2022-08-31T20:03:31.164Z,30.00
2022-08-31T20:05:59.804Z,29.90
2022-08-31T20:08:26.976Z,30.00
2022-08-31T20:10:54.559Z,30.00
2022-08-31T20:13:27.655Z,30.00
2022-08-31T20:15:56.088Z,30.00
2022-08-31T20:18:26.241Z,29.90
2022-08-31T20:20:55.028Z,30.00
2022-08-31T20:23:22.921Z,30.00
2022-08-31T20:25:51.892Z,30.10
2022-08-31T20:28:25.423Z,30.00
2022-08-31T20:30:58.944Z,30.00
2022-08-31T20:33:27.728Z,29.90
2022-08-31T20:35:55.001Z,30.00
2022-08-31T20:38:21.985Z,30.00
2022-08-31T20:40:52.207Z,30.00
2022-08-31T20:43:23.969Z,30.00
2022-08-31T20:45:50.994Z,29.90
2022-08-31T20:48:36.345Z,30.00
2022-08-31T20:51:18.234Z,29.90
2022-08-31T20:53:46.646Z,30.00
2022-08-31T20:56:17.788Z,30.00
2022-08-31T20:58:46.883Z,29.90
2022-08-31T21:01:15.948Z,29.90
2022-08-31T21:03:43.302Z,29.90
2022-08-31T21:06:12.175Z,29.90
2022-08-31T21:08:42.647Z,29.90
2022-08-31T21:11:16.682Z,29.90
2022-08-31T21:13:46.504Z,29.90
2022-08-31T21:16:15.128Z,29.90
2022-08-31T21:18:42.176Z,29.80
2022-08-31T21:21:17.581Z,29.90
2022-08-31T21:23:46.908Z,29.90
2022-08-31T21:26:24.403Z,29.80
2022-08-31T21:28:53.772Z,29.90
2022-08-31T21:31:28.706Z,29.90
2022-08-31T21:33:59.976Z,29.90
2022-08-31T21:36:29.119Z,29.80
2022-08-31T21:38:59.733Z,29.90
2022-08-31T21:41:29.108Z,29.90
2022-08-31T21:43:57.722Z,29.90
2022-08-31T21:46:28.579Z,29.80
2022-08-31T21:48:58.706Z,29.80
2022-08-31T21:51:33.530Z,29.80
2022-08-31T21:54:07.952Z,29.80
2022-08-31T21:56:45.155Z,29.80
2022-08-31T21:59:17.958Z,29.90
2022-08-31T22:01:45.402Z,29.80
2022-08-31T22:04:14.420Z,29.80
2022-08-31T22:06:43.167Z,29.80
2022-08-31T22:09:18.420Z,29.80
2022-08-31T22:11:52.796Z,29.80
2022-08-31T22:14:28.756Z,29.80
2022-08-31T22:16:57.903Z,29.70
2022-08-31T22:19:28.389Z,29.80
2022-08-31T22:21:59.057Z,29.70
2022-08-31T22:24:32.112Z,29.70
2022-08-31T22:27:06.479Z,29.70
2022-08-31T22:29:36.860Z,29.70
2022-08-31T22:32:12.498Z,29.80
2022-08-31T22:34:42.123Z,29.70
2022-08-31T22:37:11.956Z,29.70
2022-08-31T22:39:42.309Z,29.70
2022-08-31T22:42:09.422Z,29.70
2022-08-31T22:44:37.628Z,29.70
2022-08-31T22:47:05.522Z,29.70
2022-08-31T22:49:33.304Z,29.70
2022-08-31T22:52:00.233Z,29.60
2022-08-31T22:54:27.532Z,29.60
2022-08-31T22:56:54.959Z,29.70
2022-08-31T22:59:28.066Z,29.60
2022-08-31T23:02:01.990Z,29.60
2022-08-31T23:04:33.300Z,29.60
2022-08-31T23:07:03.586Z,29.60
2022-08-31T23:09:33.787Z,29.60
2022-08-31T23:12:04.786Z,29.60
2022-08-31T23:14:32.684Z,29.60
2022-08-31T23:17:03.971Z,29.60
2022-08-31T23:19:40.256Z,29.50
2022-08-31T23:22:11.697Z,29.60
2022-08-31T23:24:48.542Z,29.50
2022-08-31T23:27:22.172Z,29.50
2022-08-31T23:29:58.439Z,29.60
2022-08-31T23:32:28.253Z,29.60
2022-08-31T23:34:58.357Z,29.50
2022-08-31T23:37:27.327Z,29.50
2022-08-31T23:39:56.255Z,29.50
2022-08-31T23:42:27.159Z,29.60
2022-08-31T23:44:55.336Z,29.50
2022-08-31T23:47:26.851Z,29.50
2022-08-31T23:49:54.166Z,29.50
2022-08-31T23:52:27.813Z,29.50
2022-08-31T23:55:00.349Z,29.50
2022-08-31T23:57:32.855Z,29.50
